Terminal Aerodrome Forecast
Issued by NWS

Home | Current Version | Previous Version | Text Only | Print | Product List | Glossary On
Versions: 1 2 3 4 5 6 7 8 9 10 11 12 13 14 15 16 17 18 19 20
000
FTUS46 KMFR 181741
TAFOTH
TAF
KOTH 181741Z 1818/1918 14008KT 6SM BR BKN006 OVC015
     FM181900 19010KT P6SM SCT007 OVC020
     FM182100 23014G21KT P6SM OVC020
     FM190300 20016G25KT P6SM SCT006 OVC015
     FM190800 19015G25KT 4SM -RA BR BKN005 OVC015=

USA.gov is the U.S. government's official web portal to all federal, state and local government web resources and services.